sensor_id;sensor_type;location;lat;lon;timestamp;P1;durP1;ratioP1;P2;durP2;ratioP2
52940;SDS011;62001;53.366;6.636;2022-08-19T00:01:30;11.95;;;8.00;;
52940;SDS011;62001;53.366;6.636;2022-08-19T00:03:58;12.13;;;8.70;;
52940;SDS011;62001;53.366;6.636;2022-08-19T00:06:26;14.18;;;9.10;;
52940;SDS011;62001;53.366;6.636;2022-08-19T00:08:53;14.45;;;9.43;;
52940;SDS011;62001;53.366;6.636;2022-08-19T00:11:20;11.77;;;9.90;;
52940;SDS011;62001;53.366;6.636;2022-08-19T00:13:46;13.18;;;10.02;;
52940;SDS011;62001;53.366;6.636;2022-08-19T00:16:14;12.65;;;9.48;;
52940;SDS011;62001;53.366;6.636;2022-08-19T00:18:40;16.08;;;9.77;;
52940;SDS011;62001;53.366;6.636;2022-08-19T00:21:06;16.83;;;10.30;;
52940;SDS011;62001;53.366;6.636;2022-08-19T00:23:32;14.68;;;10.77;;
52940;SDS011;62001;53.366;6.636;2022-08-19T00:26:00;15.38;;;9.63;;
52940;SDS011;62001;53.366;6.636;2022-08-19T00:28:25;11.40;;;9.10;;
52940;SDS011;62001;53.366;6.636;2022-08-19T00:30:51;14.25;;;9.73;;
52940;SDS011;62001;53.366;6.636;2022-08-19T00:33:18;13.50;;;9.77;;
52940;SDS011;62001;53.366;6.636;2022-08-19T00:35:44;14.30;;;10.25;;
52940;SDS011;62001;53.366;6.636;2022-08-19T00:38:10;14.45;;;10.50;;
52940;SDS011;62001;53.366;6.636;2022-08-19T00:40:36;13.38;;;10.30;;
52940;SDS011;62001;53.366;6.636;2022-08-19T00:43:07;15.73;;;10.95;;
52940;SDS011;62001;53.366;6.636;2022-08-19T00:45:34;15.75;;;10.27;;
52940;SDS011;62001;53.366;6.636;2022-08-19T00:48:01;14.85;;;10.77;;
52940;SDS011;62001;53.366;6.636;2022-08-19T00:50:29;14.85;;;10.68;;
52940;SDS011;62001;53.366;6.636;2022-08-19T00:52:55;19.67;;;12.35;;
52940;SDS011;62001;53.366;6.636;2022-08-19T00:55:24;17.02;;;10.93;;
52940;SDS011;62001;53.366;6.636;2022-08-19T00:57:55;11.25;;;9.35;;
52940;SDS011;62001;53.366;6.636;2022-08-19T01:00:27;15.25;;;11.02;;
52940;SDS011;62001;53.366;6.636;2022-08-19T01:02:53;11.80;;;9.88;;
52940;SDS011;62001;53.366;6.636;2022-08-19T01:05:20;10.70;;;8.98;;
52940;SDS011;62001;53.366;6.636;2022-08-19T01:07:49;9.95;;;7.70;;
52940;SDS011;62001;53.366;6.636;2022-08-19T01:10:17;10.45;;;7.93;;
52940;SDS011;62001;53.366;6.636;2022-08-19T01:12:46;12.15;;;7.90;;
52940;SDS011;62001;53.366;6.636;2022-08-19T01:15:14;8.82;;;7.93;;
52940;SDS011;62001;53.366;6.636;2022-08-19T01:17:42;12.57;;;8.43;;
52940;SDS011;62001;53.366;6.636;2022-08-19T01:20:12;12.52;;;7.35;;
52940;SDS011;62001;53.366;6.636;2022-08-19T01:22:46;10.10;;;5.45;;
52940;SDS011;62001;53.366;6.636;2022-08-19T01:25:14;13.68;;;5.00;;
52940;SDS011;62001;53.366;6.636;2022-08-19T01:27:43;5.95;;;4.50;;
52940;SDS011;62001;53.366;6.636;2022-08-19T01:30:17;5.38;;;4.88;;
52940;SDS011;62001;53.366;6.636;2022-08-19T01:32:49;8.00;;;6.20;;
52940;SDS011;62001;53.366;6.636;2022-08-19T01:35:16;12.38;;;7.70;;
52940;SDS011;62001;53.366;6.636;2022-08-19T01:37:47;10.55;;;7.82;;
52940;SDS011;62001;53.366;6.636;2022-08-19T01:40:19;10.93;;;7.72;;
52940;SDS011;62001;53.366;6.636;2022-08-19T01:42:47;11.88;;;8.93;;
52940;SDS011;62001;53.366;6.636;2022-08-19T01:45:14;11.55;;;10.35;;
52940;SDS011;62001;53.366;6.636;2022-08-19T01:47:40;14.45;;;10.68;;
52940;SDS011;62001;53.366;6.636;2022-08-19T01:50:07;12.57;;;11.27;;
52940;SDS011;62001;53.366;6.636;2022-08-19T01:52:35;15.43;;;11.35;;
52940;SDS011;62001;53.366;6.636;2022-08-19T01:55:02;14.93;;;10.45;;
52940;SDS011;62001;53.366;6.636;2022-08-19T01:57:30;11.00;;;9.57;;
52940;SDS011;62001;53.366;6.636;2022-08-19T01:59:56;14.32;;;9.88;;
52940;SDS011;62001;53.366;6.636;2022-08-19T02:02:21;11.63;;;8.80;;
52940;SDS011;62001;53.366;6.636;2022-08-19T02:04:48;12.55;;;8.57;;
52940;SDS011;62001;53.366;6.636;2022-08-19T02:07:13;10.88;;;7.97;;
52940;SDS011;62001;53.366;6.636;2022-08-19T02:09:39;11.80;;;9.20;;
52940;SDS011;62001;53.366;6.636;2022-08-19T02:12:06;16.02;;;10.13;;
52940;SDS011;62001;53.366;6.636;2022-08-19T02:14:34;16.02;;;10.63;;
52940;SDS011;62001;53.366;6.636;2022-08-19T02:17:00;14.70;;;10.45;;
52940;SDS011;62001;53.366;6.636;2022-08-19T02:19:27;13.00;;;8.43;;
52940;SDS011;62001;53.366;6.636;2022-08-19T02:21:52;8.93;;;6.65;;
52940;SDS011;62001;53.366;6.636;2022-08-19T02:24:18;13.98;;;9.45;;
52940;SDS011;62001;53.366;6.636;2022-08-19T02:26:44;16.40;;;11.07;;
52940;SDS011;62001;53.366;6.636;2022-08-19T02:29:10;15.95;;;12.25;;
52940;SDS011;62001;53.366;6.636;2022-08-19T02:31:36;15.90;;;12.23;;
52940;SDS011;62001;53.366;6.636;2022-08-19T02:34:02;16.40;;;12.18;;
52940;SDS011;62001;53.366;6.636;2022-08-19T02:36:28;19.90;;;13.88;;
52940;SDS011;62001;53.366;6.636;2022-08-19T02:38:55;19.02;;;13.10;;
52940;SDS011;62001;53.366;6.636;2022-08-19T02:41:24;20.30;;;12.57;;
52940;SDS011;62001;53.366;6.636;2022-08-19T02:43:51;19.10;;;13.20;;
52940;SDS011;62001;53.366;6.636;2022-08-19T02:46:18;18.45;;;12.25;;
52940;SDS011;62001;53.366;6.636;2022-08-19T02:51:21;22.42;;;13.27;;
52940;SDS011;62001;53.366;6.636;2022-08-19T02:53:49;19.58;;;13.57;;
52940;SDS011;62001;53.366;6.636;2022-08-19T02:56:15;16.40;;;12.23;;
52940;SDS011;62001;53.366;6.636;2022-08-19T02:58:41;19.70;;;13.13;;
52940;SDS011;62001;53.366;6.636;2022-08-19T03:01:08;19.70;;;13.73;;
52940;SDS011;62001;53.366;6.636;2022-08-19T03:03:35;19.17;;;14.35;;
52940;SDS011;62001;53.366;6.636;2022-08-19T03:06:11;20.17;;;14.45;;
52940;SDS011;62001;53.366;6.636;2022-08-19T03:08:40;21.85;;;15.27;;
52940;SDS011;62001;53.366;6.636;2022-08-19T03:11:17;21.83;;;15.88;;
52940;SDS011;62001;53.366;6.636;2022-08-19T03:13:46;19.33;;;14.63;;
52940;SDS011;62001;53.366;6.636;2022-08-19T03:16:14;21.75;;;13.93;;
52940;SDS011;62001;53.366;6.636;2022-08-19T03:18:41;19.80;;;13.93;;
52940;SDS011;62001;53.366;6.636;2022-08-19T03:21:07;21.85;;;14.48;;
52940;SDS011;62001;53.366;6.636;2022-08-19T03:23:33;19.13;;;14.48;;
52940;SDS011;62001;53.366;6.636;2022-08-19T03:26:02;19.10;;;13.40;;
52940;SDS011;62001;53.366;6.636;2022-08-19T03:28:30;17.92;;;13.35;;
52940;SDS011;62001;53.366;6.636;2022-08-19T03:31:00;18.20;;;12.90;;
52940;SDS011;62001;53.366;6.636;2022-08-19T03:33:28;20.27;;;12.73;;
52940;SDS011;62001;53.366;6.636;2022-08-19T03:38:31;12.73;;;9.45;;
52940;SDS011;62001;53.366;6.636;2022-08-19T03:40:57;9.48;;;8.05;;
52940;SDS011;62001;53.366;6.636;2022-08-19T03:43:27;16.90;;;8.32;;
52940;SDS011;62001;53.366;6.636;2022-08-19T03:46:03;14.02;;;9.43;;
52940;SDS011;62001;53.366;6.636;2022-08-19T03:48:31;10.07;;;8.50;;
52940;SDS011;62001;53.366;6.636;2022-08-19T03:50:58;20.88;;;12.75;;
52940;SDS011;62001;53.366;6.636;2022-08-19T03:53:26;16.45;;;12.50;;
52940;SDS011;62001;53.366;6.636;2022-08-19T03:55:53;17.90;;;13.70;;
52940;SDS011;62001;53.366;6.636;2022-08-19T03:58:19;22.80;;;14.23;;
52940;SDS011;62001;53.366;6.636;2022-08-19T04:00:46;22.33;;;14.63;;
52940;SDS011;62001;53.366;6.636;2022-08-19T04:03:12;18.95;;;13.85;;
52940;SDS011;62001;53.366;6.636;2022-08-19T04:05:37;17.70;;;11.15;;
52940;SDS011;62001;53.366;6.636;2022-08-19T04:08:03;15.93;;;11.13;;
52940;SDS011;62001;53.366;6.636;2022-08-19T04:10:39;13.32;;;9.45;;
52940;SDS011;62001;53.366;6.636;2022-08-19T04:13:06;10.52;;;9.25;;
52940;SDS011;62001;53.366;6.636;2022-08-19T04:15:38;9.80;;;8.25;;
52940;SDS011;62001;53.366;6.636;2022-08-19T04:18:07;9.13;;;7.03;;
52940;SDS011;62001;53.366;6.636;2022-08-19T04:20:44;9.02;;;7.15;;
52940;SDS011;62001;53.366;6.636;2022-08-19T04:23:12;8.88;;;6.63;;
52940;SDS011;62001;53.366;6.636;2022-08-19T04:25:40;46.75;;;8.30;;
52940;SDS011;62001;53.366;6.636;2022-08-19T04:28:09;15.02;;;8.30;;
52940;SDS011;62001;53.366;6.636;2022-08-19T04:30:37;38.47;;;7.40;;
52940;SDS011;62001;53.366;6.636;2022-08-19T04:33:08;67.72;;;8.95;;
52940;SDS011;62001;53.366;6.636;2022-08-19T04:35:36;23.05;;;9.73;;
52940;SDS011;62001;53.366;6.636;2022-08-19T04:38:06;10.57;;;8.23;;
52940;SDS011;62001;53.366;6.636;2022-08-19T04:40:32;12.05;;;8.15;;
52940;SDS011;62001;53.366;6.636;2022-08-19T04:43:17;9.55;;;7.68;;
52940;SDS011;62001;53.366;6.636;2022-08-19T04:45:43;48.65;;;10.05;;
52940;SDS011;62001;53.366;6.636;2022-08-19T04:48:10;59.88;;;9.65;;
52940;SDS011;62001;53.366;6.636;2022-08-19T04:50:41;11.43;;;6.32;;
52940;SDS011;62001;53.366;6.636;2022-08-19T04:53:08;9.32;;;7.00;;
52940;SDS011;62001;53.366;6.636;2022-08-19T04:55:38;8.90;;;7.07;;
52940;SDS011;62001;53.366;6.636;2022-08-19T04:58:05;10.52;;;7.47;;
52940;SDS011;62001;53.366;6.636;2022-08-19T05:00:31;11.65;;;7.47;;
52940;SDS011;62001;53.366;6.636;2022-08-19T05:02:57;11.73;;;8.00;;
52940;SDS011;62001;53.366;6.636;2022-08-19T05:05:23;11.90;;;9.25;;
52940;SDS011;62001;53.366;6.636;2022-08-19T05:07:49;16.80;;;12.05;;
52940;SDS011;62001;53.366;6.636;2022-08-19T05:10:14;19.60;;;14.75;;
52940;SDS011;62001;53.366;6.636;2022-08-19T05:12:40;20.35;;;13.73;;
52940;SDS011;62001;53.366;6.636;2022-08-19T05:15:06;25.05;;;16.50;;
52940;SDS011;62001;53.366;6.636;2022-08-19T05:17:36;22.70;;;15.70;;
52940;SDS011;62001;53.366;6.636;2022-08-19T05:20:03;18.30;;;13.98;;
52940;SDS011;62001;53.366;6.636;2022-08-19T05:22:48;15.57;;;12.15;;
52940;SDS011;62001;53.366;6.636;2022-08-19T05:25:15;16.92;;;12.52;;
52940;SDS011;62001;53.366;6.636;2022-08-19T05:27:44;14.63;;;11.85;;
52940;SDS011;62001;53.366;6.636;2022-08-19T05:30:10;15.60;;;10.55;;
52940;SDS011;62001;53.366;6.636;2022-08-19T05:32:37;10.73;;;9.40;;
52940;SDS011;62001;53.366;6.636;2022-08-19T05:35:04;11.05;;;9.05;;
52940;SDS011;62001;53.366;6.636;2022-08-19T05:37:31;12.18;;;8.30;;
52940;SDS011;62001;53.366;6.636;2022-08-19T05:39:56;9.73;;;8.25;;
52940;SDS011;62001;53.366;6.636;2022-08-19T05:42:22;10.38;;;8.45;;
52940;SDS011;62001;53.366;6.636;2022-08-19T05:44:49;12.52;;;9.40;;
52940;SDS011;62001;53.366;6.636;2022-08-19T05:47:16;12.50;;;9.57;;
52940;SDS011;62001;53.366;6.636;2022-08-19T05:49:43;17.58;;;9.70;;
52940;SDS011;62001;53.366;6.636;2022-08-19T05:52:11;14.70;;;10.50;;
52940;SDS011;62001;53.366;6.636;2022-08-19T05:54:39;14.60;;;9.95;;
52940;SDS011;62001;53.366;6.636;2022-08-19T05:57:08;17.50;;;10.52;;
52940;SDS011;62001;53.366;6.636;2022-08-19T05:59:34;14.75;;;10.57;;
52940;SDS011;62001;53.366;6.636;2022-08-19T06:02:01;13.45;;;10.30;;
52940;SDS011;62001;53.366;6.636;2022-08-19T06:04:27;12.30;;;9.95;;
52940;SDS011;62001;53.366;6.636;2022-08-19T06:06:53;11.35;;;10.10;;
52940;SDS011;62001;53.366;6.636;2022-08-19T06:09:20;14.70;;;11.00;;
52940;SDS011;62001;53.366;6.636;2022-08-19T06:11:51;11.68;;;10.23;;
52940;SDS011;62001;53.366;6.636;2022-08-19T06:14:19;12.70;;;10.05;;
52940;SDS011;62001;53.366;6.636;2022-08-19T06:16:50;17.02;;;10.85;;
52940;SDS011;62001;53.366;6.636;2022-08-19T06:19:20;14.17;;;11.00;;
52940;SDS011;62001;53.366;6.636;2022-08-19T06:21:48;11.52;;;10.25;;
52940;SDS011;62001;53.366;6.636;2022-08-19T06:24:17;15.30;;;10.57;;
52940;SDS011;62001;53.366;6.636;2022-08-19T06:26:47;12.85;;;10.52;;
52940;SDS011;62001;53.366;6.636;2022-08-19T06:29:14;14.55;;;11.02;;
52940;SDS011;62001;53.366;6.636;2022-08-19T06:31:51;13.85;;;11.63;;
52940;SDS011;62001;53.366;6.636;2022-08-19T06:34:21;13.38;;;10.30;;
52940;SDS011;62001;53.366;6.636;2022-08-19T06:36:49;14.60;;;11.18;;
52940;SDS011;62001;53.366;6.636;2022-08-19T06:39:17;14.15;;;11.73;;
52940;SDS011;62001;53.366;6.636;2022-08-19T06:41:46;14.13;;;11.23;;
52940;SDS011;62001;53.366;6.636;2022-08-19T06:44:13;15.13;;;11.50;;
52940;SDS011;62001;53.366;6.636;2022-08-19T06:46:40;14.20;;;11.35;;
52940;SDS011;62001;53.366;6.636;2022-08-19T06:49:06;17.25;;;11.70;;
52940;SDS011;62001;53.366;6.636;2022-08-19T06:51:39;12.35;;;11.07;;
52940;SDS011;62001;53.366;6.636;2022-08-19T06:56:34;13.02;;;11.07;;
52940;SDS011;62001;53.366;6.636;2022-08-19T06:59:03;12.45;;;11.15;;
52940;SDS011;62001;53.366;6.636;2022-08-19T07:01:34;14.32;;;11.07;;
52940;SDS011;62001;53.366;6.636;2022-08-19T07:04:02;11.77;;;10.57;;
52940;SDS011;62001;53.366;6.636;2022-08-19T07:06:30;11.90;;;10.25;;
52940;SDS011;62001;53.366;6.636;2022-08-19T07:08:56;12.70;;;10.13;;
52940;SDS011;62001;53.366;6.636;2022-08-19T07:11:23;13.25;;;10.13;;
52940;SDS011;62001;53.366;6.636;2022-08-19T07:13:49;15.23;;;10.18;;
52940;SDS011;62001;53.366;6.636;2022-08-19T07:16:17;13.23;;;10.82;;
52940;SDS011;62001;53.366;6.636;2022-08-19T07:18:47;12.60;;;8.63;;
52940;SDS011;62001;53.366;6.636;2022-08-19T07:21:15;11.50;;;9.07;;
52940;SDS011;62001;53.366;6.636;2022-08-19T07:23:46;12.65;;;8.85;;
52940;SDS011;62001;53.366;6.636;2022-08-19T07:26:22;10.63;;;8.73;;
52940;SDS011;62001;53.366;6.636;2022-08-19T07:28:50;13.25;;;9.15;;
52940;SDS011;62001;53.366;6.636;2022-08-19T07:31:18;12.43;;;9.27;;
52940;SDS011;62001;53.366;6.636;2022-08-19T07:33:47;12.93;;;8.82;;
52940;SDS011;62001;53.366;6.636;2022-08-19T07:36:16;12.47;;;9.33;;
52940;SDS011;62001;53.366;6.636;2022-08-19T07:38:46;16.35;;;9.55;;
52940;SDS011;62001;53.366;6.636;2022-08-19T07:41:15;12.30;;;8.73;;
52940;SDS011;62001;53.366;6.636;2022-08-19T07:43:43;15.85;;;8.57;;
52940;SDS011;62001;53.366;6.636;2022-08-19T07:46:09;11.77;;;8.85;;
52940;SDS011;62001;53.366;6.636;2022-08-19T07:48:36;11.05;;;7.95;;
52940;SDS011;62001;53.366;6.636;2022-08-19T07:51:03;8.82;;;7.97;;
52940;SDS011;62001;53.366;6.636;2022-08-19T07:53:32;11.20;;;7.60;;
52940;SDS011;62001;53.366;6.636;2022-08-19T07:55:59;7.80;;;6.88;;
52940;SDS011;62001;53.366;6.636;2022-08-19T07:58:29;7.90;;;6.50;;
52940;SDS011;62001;53.366;6.636;2022-08-19T08:00:57;7.75;;;7.05;;
52940;SDS011;62001;53.366;6.636;2022-08-19T08:03:23;9.32;;;7.18;;
52940;SDS011;62001;53.366;6.636;2022-08-19T08:06:09;8.75;;;7.35;;
52940;SDS011;62001;53.366;6.636;2022-08-19T08:08:54;11.40;;;7.47;;
52940;SDS011;62001;53.366;6.636;2022-08-19T08:11:39;13.52;;;8.50;;
52940;SDS011;62001;53.366;6.636;2022-08-19T08:14:18;8.95;;;7.32;;
52940;SDS011;62001;53.366;6.636;2022-08-19T08:16:48;10.77;;;7.97;;
52940;SDS011;62001;53.366;6.636;2022-08-19T08:19:15;10.98;;;7.47;;
52940;SDS011;62001;53.366;6.636;2022-08-19T08:21:46;9.88;;;8.20;;
52940;SDS011;62001;53.366;6.636;2022-08-19T08:24:13;10.38;;;8.32;;
52940;SDS011;62001;53.366;6.636;2022-08-19T08:26:39;12.18;;;8.50;;
52940;SDS011;62001;53.366;6.636;2022-08-19T08:29:06;10.90;;;8.85;;
52940;SDS011;62001;53.366;6.636;2022-08-19T08:31:35;10.55;;;8.85;;
52940;SDS011;62001;53.366;6.636;2022-08-19T08:34:01;10.35;;;9.10;;
52940;SDS011;62001;53.366;6.636;2022-08-19T08:36:28;11.45;;;9.15;;
52940;SDS011;62001;53.366;6.636;2022-08-19T08:38:53;10.18;;;8.90;;
52940;SDS011;62001;53.366;6.636;2022-08-19T08:43:48;12.35;;;9.60;;
52940;SDS011;62001;53.366;6.636;2022-08-19T08:46:21;10.38;;;8.95;;
52940;SDS011;62001;53.366;6.636;2022-08-19T08:52:02;14.32;;;9.82;;
52940;SDS011;62001;53.366;6.636;2022-08-19T08:54:33;10.73;;;9.63;;
52940;SDS011;62001;53.366;6.636;2022-08-19T08:57:07;12.25;;;9.18;;
52940;SDS011;62001;53.366;6.636;2022-08-19T08:59:48;9.82;;;8.82;;
52940;SDS011;62001;53.366;6.636;2022-08-19T09:02:18;11.95;;;9.10;;
52940;SDS011;62001;53.366;6.636;2022-08-19T09:04:44;11.18;;;9.57;;
52940;SDS011;62001;53.366;6.636;2022-08-19T09:10:15;8.90;;;8.00;;
52940;SDS011;62001;53.366;6.636;2022-08-19T09:15:47;10.48;;;8.98;;
52940;SDS011;62001;53.366;6.636;2022-08-19T09:18:17;11.23;;;9.63;;
52940;SDS011;62001;53.366;6.636;2022-08-19T09:20:43;11.00;;;8.52;;
52940;SDS011;62001;53.366;6.636;2022-08-19T09:23:11;11.30;;;9.23;;
52940;SDS011;62001;53.366;6.636;2022-08-19T09:25:37;10.48;;;9.45;;
52940;SDS011;62001;53.366;6.636;2022-08-19T09:28:05;10.98;;;9.88;;
52940;SDS011;62001;53.366;6.636;2022-08-19T09:30:33;10.40;;;8.85;;
52940;SDS011;62001;53.366;6.636;2022-08-19T09:33:04;10.80;;;8.80;;
52940;SDS011;62001;53.366;6.636;2022-08-19T09:35:31;10.90;;;8.60;;
52940;SDS011;62001;53.366;6.636;2022-08-19T09:37:58;14.63;;;8.52;;
52940;SDS011;62001;53.366;6.636;2022-08-19T09:40:26;8.77;;;7.90;;
52940;SDS011;62001;53.366;6.636;2022-08-19T09:42:52;11.45;;;8.80;;
52940;SDS011;62001;53.366;6.636;2022-08-19T09:45:19;9.57;;;8.63;;
52940;SDS011;62001;53.366;6.636;2022-08-19T09:47:47;10.63;;;9.52;;
52940;SDS011;62001;53.366;6.636;2022-08-19T09:50:17;13.38;;;10.75;;
52940;SDS011;62001;53.366;6.636;2022-08-19T09:52:44;11.15;;;8.43;;
52940;SDS011;62001;53.366;6.636;2022-08-19T09:55:10;8.93;;;8.13;;
52940;SDS011;62001;53.366;6.636;2022-08-19T09:57:36;13.52;;;10.48;;
52940;SDS011;62001;53.366;6.636;2022-08-19T10:00:04;11.93;;;9.23;;
52940;SDS011;62001;53.366;6.636;2022-08-19T10:02:32;12.70;;;11.00;;
52940;SDS011;62001;53.366;6.636;2022-08-19T10:04:58;11.73;;;10.48;;
52940;SDS011;62001;53.366;6.636;2022-08-19T10:07:43;12.18;;;10.88;;
52940;SDS011;62001;53.366;6.636;2022-08-19T10:10:08;13.50;;;11.25;;
52940;SDS011;62001;53.366;6.636;2022-08-19T10:12:35;16.67;;;12.52;;
52940;SDS011;62001;53.366;6.636;2022-08-19T10:15:02;11.30;;;10.02;;
52940;SDS011;62001;53.366;6.636;2022-08-19T10:17:29;9.75;;;8.65;;
52940;SDS011;62001;53.366;6.636;2022-08-19T10:19:55;10.85;;;9.05;;
52940;SDS011;62001;53.366;6.636;2022-08-19T10:22:20;10.95;;;9.88;;
52940;SDS011;62001;53.366;6.636;2022-08-19T10:24:48;12.25;;;11.05;;
52940;SDS011;62001;53.366;6.636;2022-08-19T10:27:14;13.70;;;10.75;;
52940;SDS011;62001;53.366;6.636;2022-08-19T10:29:41;11.90;;;10.10;;
52940;SDS011;62001;53.366;6.636;2022-08-19T10:32:07;11.27;;;10.18;;
52940;SDS011;62001;53.366;6.636;2022-08-19T10:34:34;11.98;;;10.77;;
52940;SDS011;62001;53.366;6.636;2022-08-19T10:37:02;12.50;;;10.38;;
52940;SDS011;62001;53.366;6.636;2022-08-19T10:39:34;12.80;;;11.55;;
52940;SDS011;62001;53.366;6.636;2022-08-19T10:42:05;14.05;;;12.52;;
52940;SDS011;62001;53.366;6.636;2022-08-19T10:44:31;14.15;;;11.35;;
52940;SDS011;62001;53.366;6.636;2022-08-19T10:46:58;12.05;;;10.10;;
52940;SDS011;62001;53.366;6.636;2022-08-19T10:49:24;9.93;;;8.75;;
52940;SDS011;62001;53.366;6.636;2022-08-19T10:51:49;12.30;;;11.10;;
52940;SDS011;62001;53.366;6.636;2022-08-19T10:54:34;14.63;;;11.85;;
52940;SDS011;62001;53.366;6.636;2022-08-19T10:57:29;11.13;;;9.82;;
52940;SDS011;62001;53.366;6.636;2022-08-19T10:59:56;11.15;;;9.88;;
52940;SDS011;62001;53.366;6.636;2022-08-19T11:02:22;10.57;;;9.50;;
52940;SDS011;62001;53.366;6.636;2022-08-19T11:04:48;11.77;;;10.65;;
52940;SDS011;62001;53.366;6.636;2022-08-19T11:07:16;9.93;;;8.93;;
52940;SDS011;62001;53.366;6.636;2022-08-19T11:09:42;13.38;;;10.18;;
52940;SDS011;62001;53.366;6.636;2022-08-19T11:12:09;12.88;;;9.52;;
52940;SDS011;62001;53.366;6.636;2022-08-19T11:14:35;9.75;;;7.78;;
52940;SDS011;62001;53.366;6.636;2022-08-19T11:17:02;15.40;;;11.27;;
52940;SDS011;62001;53.366;6.636;2022-08-19T11:19:30;14.32;;;12.52;;
52940;SDS011;62001;53.366;6.636;2022-08-19T11:21:56;14.55;;;13.15;;
52940;SDS011;62001;53.366;6.636;2022-08-19T11:24:23;13.52;;;12.10;;
52940;SDS011;62001;53.366;6.636;2022-08-19T11:26:51;8.90;;;8.00;;
52940;SDS011;62001;53.366;6.636;2022-08-19T11:29:22;13.00;;;9.18;;
52940;SDS011;62001;53.366;6.636;2022-08-19T11:31:52;13.30;;;11.95;;
52940;SDS011;62001;53.366;6.636;2022-08-19T11:34:23;12.90;;;11.48;;
52940;SDS011;62001;53.366;6.636;2022-08-19T11:36:52;11.43;;;10.30;;
52940;SDS011;62001;53.366;6.636;2022-08-19T11:39:22;12.68;;;11.38;;
52940;SDS011;62001;53.366;6.636;2022-08-19T11:41:48;18.38;;;13.85;;
52940;SDS011;62001;53.366;6.636;2022-08-19T11:44:14;14.75;;;12.90;;
52940;SDS011;62001;53.366;6.636;2022-08-19T11:46:40;14.73;;;13.18;;
52940;SDS011;62001;53.366;6.636;2022-08-19T11:49:08;15.32;;;13.73;;
52940;SDS011;62001;53.366;6.636;2022-08-19T11:51:34;14.15;;;11.00;;
52940;SDS011;62001;53.366;6.636;2022-08-19T11:54:00;12.90;;;10.55;;
52940;SDS011;62001;53.366;6.636;2022-08-19T11:56:27;9.50;;;8.48;;
52940;SDS011;62001;53.366;6.636;2022-08-19T11:58:53;12.63;;;11.43;;
52940;SDS011;62001;53.366;6.636;2022-08-19T12:01:20;15.15;;;13.57;;
52940;SDS011;62001;53.366;6.636;2022-08-19T12:03:48;13.02;;;11.73;;
52940;SDS011;62001;53.366;6.636;2022-08-19T12:06:21;11.70;;;9.25;;
52940;SDS011;62001;53.366;6.636;2022-08-19T12:08:50;13.27;;;10.90;;
52940;SDS011;62001;53.366;6.636;2022-08-19T12:11:17;14.00;;;11.68;;
52940;SDS011;62001;53.366;6.636;2022-08-19T12:13:49;13.35;;;11.55;;
52940;SDS011;62001;53.366;6.636;2022-08-19T12:16:17;15.82;;;13.82;;
52940;SDS011;62001;53.366;6.636;2022-08-19T12:18:44;11.60;;;10.27;;
52940;SDS011;62001;53.366;6.636;2022-08-19T12:21:15;12.80;;;9.82;;
52940;SDS011;62001;53.366;6.636;2022-08-19T12:23:47;10.25;;;9.10;;
52940;SDS011;62001;53.366;6.636;2022-08-19T12:26:14;10.15;;;9.05;;
52940;SDS011;62001;53.366;6.636;2022-08-19T12:28:41;11.35;;;10.25;;
52940;SDS011;62001;53.366;6.636;2022-08-19T12:31:07;11.60;;;10.13;;
52940;SDS011;62001;53.366;6.636;2022-08-19T12:36:03;15.93;;;14.13;;
52940;SDS011;62001;53.366;6.636;2022-08-19T12:38:31;13.00;;;11.37;;
52940;SDS011;62001;53.366;6.636;2022-08-19T12:40:59;15.65;;;12.55;;
52940;SDS011;62001;53.366;6.636;2022-08-19T12:43:25;13.52;;;11.77;;
52940;SDS011;62001;53.366;6.636;2022-08-19T12:45:51;13.30;;;10.13;;
52940;SDS011;62001;53.366;6.636;2022-08-19T12:48:17;17.27;;;12.07;;
52940;SDS011;62001;53.366;6.636;2022-08-19T12:50:43;13.55;;;12.15;;
52940;SDS011;62001;53.366;6.636;2022-08-19T12:53:15;14.38;;;10.45;;
52940;SDS011;62001;53.366;6.636;2022-08-19T12:55:41;11.23;;;10.13;;
52940;SDS011;62001;53.366;6.636;2022-08-19T12:58:08;15.48;;;10.75;;
52940;SDS011;62001;53.366;6.636;2022-08-19T13:00:34;12.48;;;10.35;;
52940;SDS011;62001;53.366;6.636;2022-08-19T13:03:00;11.85;;;9.57;;
52940;SDS011;62001;53.366;6.636;2022-08-19T13:05:28;15.52;;;13.05;;
52940;SDS011;62001;53.366;6.636;2022-08-19T13:07:59;25.10;;;16.20;;
52940;SDS011;62001;53.366;6.636;2022-08-19T13:10:27;30.33;;;18.10;;
52940;SDS011;62001;53.366;6.636;2022-08-19T13:12:55;26.83;;;18.08;;
52940;SDS011;62001;53.366;6.636;2022-08-19T13:15:22;23.23;;;17.88;;
52940;SDS011;62001;53.366;6.636;2022-08-19T13:17:49;23.75;;;17.98;;
52940;SDS011;62001;53.366;6.636;2022-08-19T13:20:17;28.15;;;18.73;;
52940;SDS011;62001;53.366;6.636;2022-08-19T13:22:44;26.85;;;17.35;;
52940;SDS011;62001;53.366;6.636;2022-08-19T13:25:11;25.05;;;16.02;;
52940;SDS011;62001;53.366;6.636;2022-08-19T13:27:39;23.23;;;16.15;;
52940;SDS011;62001;53.366;6.636;2022-08-19T13:30:08;26.35;;;16.42;;
52940;SDS011;62001;53.366;6.636;2022-08-19T13:32:54;23.20;;;15.60;;
52940;SDS011;62001;53.366;6.636;2022-08-19T13:35:39;25.92;;;16.27;;
52940;SDS011;62001;53.366;6.636;2022-08-19T13:40:34;27.70;;;16.75;;
52940;SDS011;62001;53.366;6.636;2022-08-19T13:43:02;30.15;;;19.58;;
52940;SDS011;62001;53.366;6.636;2022-08-19T13:45:33;32.17;;;19.13;;
52940;SDS011;62001;53.366;6.636;2022-08-19T13:47:59;33.20;;;20.15;;
52940;SDS011;62001;53.366;6.636;2022-08-19T13:50:29;32.63;;;19.15;;
52940;SDS011;62001;53.366;6.636;2022-08-19T13:52:58;31.48;;;19.10;;
52940;SDS011;62001;53.366;6.636;2022-08-19T13:55:25;29.67;;;19.15;;
52940;SDS011;62001;53.366;6.636;2022-08-19T13:57:52;27.88;;;19.63;;
52940;SDS011;62001;53.366;6.636;2022-08-19T14:00:19;28.83;;;19.00;;
52940;SDS011;62001;53.366;6.636;2022-08-19T14:02:46;26.02;;;19.75;;
52940;SDS011;62001;53.366;6.636;2022-08-19T14:05:16;28.33;;;20.35;;
52940;SDS011;62001;53.366;6.636;2022-08-19T14:07:43;24.63;;;19.05;;
52940;SDS011;62001;53.366;6.636;2022-08-19T14:10:10;29.33;;;20.10;;
52940;SDS011;62001;53.366;6.636;2022-08-19T14:12:37;24.08;;;19.92;;
52940;SDS011;62001;53.366;6.636;2022-08-19T14:15:05;28.80;;;20.73;;
52940;SDS011;62001;53.366;6.636;2022-08-19T14:17:32;29.67;;;18.83;;
52940;SDS011;62001;53.366;6.636;2022-08-19T14:20:03;25.67;;;19.35;;
52940;SDS011;62001;53.366;6.636;2022-08-19T14:22:35;25.08;;;17.77;;
52940;SDS011;62001;53.366;6.636;2022-08-19T14:25:06;25.05;;;18.83;;
52940;SDS011;62001;53.366;6.636;2022-08-19T14:27:34;23.38;;;16.48;;
52940;SDS011;62001;53.366;6.636;2022-08-19T14:30:01;24.42;;;15.98;;
52940;SDS011;62001;53.366;6.636;2022-08-19T14:32:28;23.02;;;15.05;;
52940;SDS011;62001;53.366;6.636;2022-08-19T14:34:54;22.98;;;16.08;;
52940;SDS011;62001;53.366;6.636;2022-08-19T14:37:20;22.38;;;16.35;;
52940;SDS011;62001;53.366;6.636;2022-08-19T14:39:47;24.15;;;16.83;;
52940;SDS011;62001;53.366;6.636;2022-08-19T14:42:13;22.80;;;15.98;;
52940;SDS011;62001;53.366;6.636;2022-08-19T14:44:41;23.58;;;16.58;;
52940;SDS011;62001;53.366;6.636;2022-08-19T14:47:07;18.48;;;14.32;;
52940;SDS011;62001;53.366;6.636;2022-08-19T14:49:34;17.40;;;14.05;;
52940;SDS011;62001;53.366;6.636;2022-08-19T14:52:00;18.33;;;13.52;;
52940;SDS011;62001;53.366;6.636;2022-08-19T14:54:26;14.20;;;12.70;;
52940;SDS011;62001;53.366;6.636;2022-08-19T14:56:52;14.95;;;12.18;;
52940;SDS011;62001;53.366;6.636;2022-08-19T14:59:17;15.27;;;12.90;;